createdAt,value
2022-08-23T00:00:14.795Z,23.74
2022-08-23T00:02:48.838Z,23.73
2022-08-23T00:05:21.582Z,23.73
2022-08-23T00:07:53.628Z,23.71
2022-08-23T00:10:25.771Z,23.67
2022-08-23T00:12:57.864Z,23.65
2022-08-23T00:15:29.920Z,23.61
2022-08-23T00:18:02.303Z,23.60
2022-08-23T00:20:34.407Z,23.55
2022-08-23T00:23:06.679Z,23.55
2022-08-23T00:25:38.671Z,23.50
2022-08-23T00:28:12.516Z,23.48
2022-08-23T00:30:44.507Z,23.42
2022-08-23T00:33:16.647Z,23.40
2022-08-23T00:35:48.679Z,23.35
2022-08-23T00:38:32.681Z,23.34
2022-08-23T00:40:56.254Z,23.29
2022-08-23T00:43:51.908Z,23.27
2022-08-23T00:47:00.167Z,23.25
2022-08-23T00:49:34.459Z,23.36
2022-08-23T00:52:15.595Z,23.22
2022-08-23T00:54:49.002Z,23.18
2022-08-23T00:57:21.533Z,23.15
2022-08-23T00:59:53.755Z,23.12
2022-08-23T01:02:26.335Z,23.05
2022-08-23T01:07:45.951Z,22.97
2022-08-23T01:10:29.835Z,22.91
2022-08-23T01:13:04.900Z,22.85
2022-08-23T01:15:42.950Z,22.82
2022-08-23T01:18:18.340Z,22.78
2022-08-23T01:21:05.741Z,22.73
2022-08-23T01:23:45.319Z,22.73
2022-08-23T01:26:22.102Z,22.69
2022-08-23T01:28:55.858Z,22.65
2022-08-23T01:31:28.953Z,22.64
2022-08-23T01:34:08.352Z,22.63
2022-08-23T01:36:41.075Z,22.64
2022-08-23T01:39:13.632Z,22.63
2022-08-23T01:41:46.153Z,22.64
2022-08-23T01:44:18.414Z,22.63
2022-08-23T01:46:50.617Z,22.64
2022-08-23T01:49:24.571Z,22.64
2022-08-23T01:51:56.670Z,22.61
2022-08-23T01:57:07.320Z,22.66
2022-08-23T01:59:39.056Z,22.56
2022-08-23T02:02:11.499Z,22.67
2022-08-23T02:04:43.710Z,22.50
2022-08-23T02:07:15.739Z,22.44
2022-08-23T02:09:49.489Z,22.41
2022-08-23T02:12:21.860Z,22.36
2022-08-23T02:14:55.639Z,22.36
2022-08-23T02:17:29.495Z,22.32
2022-08-23T02:20:03.308Z,22.30
2022-08-23T02:22:35.548Z,22.31
2022-08-23T02:25:08.355Z,22.36
2022-08-23T02:27:43.022Z,22.38
2022-08-23T02:30:16.302Z,22.44
2022-08-23T02:32:48.709Z,22.46
2022-08-23T02:35:21.326Z,22.47
2022-08-23T02:37:55.212Z,22.45
2022-08-23T02:40:27.286Z,22.42
2022-08-23T02:43:00.153Z,22.42
2022-08-23T02:45:32.663Z,22.44
2022-08-23T02:48:05.264Z,22.43
2022-08-23T02:50:39.659Z,22.42
2022-08-23T02:53:12.122Z,22.40
2022-08-23T02:55:46.577Z,22.42
2022-08-23T02:58:18.634Z,22.42
2022-08-23T03:00:51.900Z,22.43
2022-08-23T03:03:26.183Z,22.45
2022-08-23T03:05:58.546Z,22.46
2022-08-23T03:08:32.603Z,22.47
2022-08-23T03:11:09.726Z,22.49
2022-08-23T03:13:40.187Z,22.50
2022-08-23T03:16:12.808Z,22.52
2022-08-23T03:18:47.935Z,22.53
2022-08-23T03:21:21.358Z,22.53
2022-08-23T03:23:53.321Z,22.68
2022-08-23T03:26:25.932Z,22.60
2022-08-23T03:28:59.040Z,22.61
2022-08-23T03:31:33.437Z,22.65
2022-08-23T03:34:07.995Z,22.69
2022-08-23T03:36:41.024Z,22.73
2022-08-23T03:39:14.011Z,22.76
2022-08-23T03:41:46.509Z,22.79
2022-08-23T03:44:18.933Z,22.86
2022-08-23T03:46:52.221Z,22.93
2022-08-23T03:49:24.471Z,22.96
2022-08-23T03:54:30.224Z,23.06
2022-08-23T03:57:05.401Z,23.11
2022-08-23T03:59:41.156Z,23.18
2022-08-23T04:02:14.953Z,23.25
2022-08-23T04:04:47.018Z,23.31
2022-08-23T04:07:37.394Z,23.36
2022-08-23T04:10:13.103Z,23.40
2022-08-23T04:12:46.497Z,23.50
2022-08-23T04:15:20.511Z,23.52
2022-08-23T04:17:53.027Z,23.56
2022-08-23T04:20:26.110Z,23.60
2022-08-23T04:23:03.993Z,23.63
2022-08-23T04:25:38.131Z,23.66
2022-08-23T04:28:10.472Z,23.71
2022-08-23T04:30:43.548Z,23.80
2022-08-23T04:33:19.141Z,23.88
2022-08-23T04:35:52.982Z,23.95
2022-08-23T04:38:25.765Z,24.02
2022-08-23T04:41:18.108Z,24.08
2022-08-23T04:43:51.729Z,24.11
2022-08-23T04:46:24.063Z,24.18
2022-08-23T04:48:57.348Z,24.23
2022-08-23T04:51:29.499Z,24.28
2022-08-23T04:54:03.472Z,24.36
2022-08-23T04:56:43.597Z,24.43
2022-08-23T04:59:16.360Z,24.51
2022-08-23T05:01:49.982Z,24.64
2022-08-23T05:04:22.689Z,24.77
2022-08-23T05:06:55.261Z,24.94
2022-08-23T05:09:27.821Z,25.09
2022-08-23T05:12:00.621Z,25.21
2022-08-23T05:14:35.139Z,25.37
2022-08-23T05:17:08.455Z,25.58
2022-08-23T05:19:47.004Z,25.73
2022-08-23T05:22:17.850Z,25.87
2022-08-23T05:24:51.824Z,26.00
2022-08-23T05:27:24.232Z,26.16
2022-08-23T05:29:57.451Z,26.29
2022-08-23T05:32:33.295Z,26.40
2022-08-23T05:35:04.606Z,26.51
2022-08-23T05:37:38.626Z,26.67
2022-08-23T05:40:12.158Z,26.75
2022-08-23T05:42:46.579Z,26.80
2022-08-23T05:45:21.964Z,26.84
2022-08-23T05:47:53.640Z,26.88
2022-08-23T05:50:29.866Z,26.94
2022-08-23T05:53:04.364Z,26.97
2022-08-23T05:55:38.399Z,27.03
2022-08-23T05:58:21.551Z,27.07
2022-08-23T06:00:55.569Z,27.21
2022-08-23T06:03:28.293Z,27.38
2022-08-23T06:06:02.169Z,27.52
2022-08-23T06:08:35.927Z,27.75
2022-08-23T06:11:11.721Z,27.90
2022-08-23T06:13:49.539Z,28.08
2022-08-23T06:16:24.717Z,28.32
2022-08-23T06:18:58.332Z,28.55
2022-08-23T06:21:45.171Z,28.74
2022-08-23T06:24:17.782Z,28.93
2022-08-23T06:26:58.011Z,29.08
2022-08-23T06:29:30.379Z,29.06
2022-08-23T06:32:08.393Z,28.94
2022-08-23T06:34:42.498Z,28.88
2022-08-23T06:37:28.034Z,28.84
2022-08-23T06:40:05.753Z,28.82
2022-08-23T06:42:42.199Z,28.85
2022-08-23T06:45:14.536Z,28.87
2022-08-23T06:47:48.191Z,28.86
2022-08-23T06:50:20.999Z,28.92
2022-08-23T06:53:12.542Z,29.18
2022-08-23T06:55:52.231Z,29.58
2022-08-23T06:58:41.501Z,30.38
2022-08-23T07:01:45.345Z,31.48
2022-08-23T07:04:15.831Z,32.34
2022-08-23T07:07:11.144Z,32.92
2022-08-23T07:09:41.526Z,33.59
2022-08-23T07:12:13.735Z,34.01
2022-08-23T07:14:47.339Z,34.17
2022-08-23T07:17:19.920Z,34.05
2022-08-23T07:19:53.633Z,33.73
2022-08-23T07:22:26.463Z,33.32
2022-08-23T07:24:58.980Z,32.83
2022-08-23T07:27:33.501Z,32.33
2022-08-23T07:30:07.958Z,31.96
2022-08-23T07:32:40.940Z,31.75
2022-08-23T07:35:26.581Z,32.03
2022-08-23T07:38:01.158Z,31.67
2022-08-23T07:40:38.910Z,31.61
2022-08-23T07:43:12.352Z,31.62
2022-08-23T07:45:48.137Z,31.94
2022-08-23T07:48:37.328Z,31.73
2022-08-23T07:51:05.377Z,31.88
2022-08-23T07:53:43.013Z,31.91
2022-08-23T07:56:17.287Z,31.89
2022-08-23T07:59:11.367Z,31.93
2022-08-23T08:01:48.257Z,31.98
2022-08-23T08:04:20.359Z,32.00
2022-08-23T08:07:16.901Z,32.11
2022-08-23T08:09:27.932Z,32.24
2022-08-23T08:12:00.769Z,32.60
2022-08-23T08:14:36.300Z,32.51
2022-08-23T08:17:09.149Z,32.54
2022-08-23T08:19:59.586Z,32.64
2022-08-23T08:22:48.529Z,32.73
2022-08-23T08:25:34.559Z,32.79
2022-08-23T08:28:11.581Z,32.92
2022-08-23T08:30:42.464Z,32.98
2022-08-23T08:33:15.091Z,33.11
2022-08-23T08:35:57.757Z,33.08
2022-08-23T08:38:24.050Z,33.10
2022-08-23T08:41:03.810Z,33.05
2022-08-23T08:44:15.815Z,33.06
2022-08-23T08:46:48.942Z,33.13
2022-08-23T08:49:31.961Z,33.12
2022-08-23T08:52:16.517Z,33.15
2022-08-23T08:54:53.182Z,33.13
2022-08-23T08:57:27.659Z,33.13
2022-08-23T09:00:04.190Z,33.14
2022-08-23T09:02:39.501Z,33.09
2022-08-23T09:05:16.010Z,33.00
2022-08-23T09:08:09.237Z,32.94
2022-08-23T09:10:44.637Z,32.80
2022-08-23T09:13:25.823Z,32.72
2022-08-23T09:16:16.930Z,32.64
2022-08-23T09:18:49.622Z,32.58
2022-08-23T09:21:23.155Z,32.51
2022-08-23T09:24:00.458Z,32.51
2022-08-23T09:26:32.802Z,32.48
2022-08-23T09:29:17.426Z,32.44
2022-08-23T09:32:01.759Z,32.39
2022-08-23T09:34:36.951Z,32.60
2022-08-23T09:37:19.574Z,32.66
2022-08-23T09:39:55.623Z,32.54
2022-08-23T09:42:31.059Z,32.61
2022-08-23T09:45:05.385Z,32.63
2022-08-23T09:47:44.553Z,32.73
2022-08-23T09:50:27.638Z,32.85
2022-08-23T09:53:14.726Z,32.97
2022-08-23T09:55:57.372Z,33.05
2022-08-23T09:58:38.943Z,33.16
2022-08-23T10:01:17.462Z,33.24
2022-08-23T10:04:10.419Z,33.30
2022-08-23T10:06:46.488Z,33.25
2022-08-23T10:09:35.605Z,33.25
2022-08-23T10:12:09.162Z,33.33
2022-08-23T10:14:44.038Z,33.40
2022-08-23T10:17:23.771Z,33.50
2022-08-23T10:20:06.731Z,33.55
2022-08-23T10:22:47.803Z,33.63
2022-08-23T10:25:30.446Z,33.67
2022-08-23T10:28:26.216Z,33.73
2022-08-23T10:31:14.305Z,33.81
2022-08-23T10:34:13.326Z,33.91
2022-08-23T10:37:03.873Z,33.95
2022-08-23T10:39:39.899Z,33.99
2022-08-23T10:42:18.194Z,34.10
2022-08-23T10:44:54.053Z,34.15
2022-08-23T10:47:43.147Z,34.18
2022-08-23T10:50:20.340Z,34.31
2022-08-23T10:52:58.614Z,34.48
2022-08-23T10:55:38.701Z,34.53
2022-08-23T10:58:15.006Z,34.74
2022-08-23T11:00:47.743Z,34.75
2022-08-23T11:03:28.221Z,34.80
2022-08-23T11:06:34.912Z,34.89
2022-08-23T11:09:22.592Z,35.11
2022-08-23T11:12:17.763Z,35.28
2022-08-23T11:15:02.136Z,35.55
2022-08-23T11:17:44.044Z,35.88
2022-08-23T11:20:36.466Z,35.77
2022-08-23T11:23:12.075Z,35.77
2022-08-23T11:25:46.801Z,35.67
2022-08-23T11:28:30.610Z,35.63
2022-08-23T11:31:14.356Z,35.93
2022-08-23T11:33:56.490Z,35.70
2022-08-23T11:36:31.417Z,35.63
2022-08-23T11:39:12.521Z,35.61
2022-08-23T11:42:01.488Z,35.66
2022-08-23T11:44:38.397Z,35.76
2022-08-23T11:47:13.109Z,35.92
2022-08-23T11:50:00.542Z,35.96
2022-08-23T11:52:48.703Z,36.09
2022-08-23T11:55:43.295Z,36.09
2022-08-23T11:58:33.500Z,36.13
2022-08-23T12:01:14.569Z,35.98
2022-08-23T12:04:02.447Z,35.78
2022-08-23T12:06:54.135Z,35.62
2022-08-23T12:09:30.729Z,35.66
2022-08-23T12:12:09.118Z,35.76
2022-08-23T12:14:47.498Z,35.67
2022-08-23T12:17:24.939Z,35.50
2022-08-23T12:20:16.343Z,35.30
2022-08-23T12:23:06.810Z,35.25
2022-08-23T12:25:39.885Z,36.98
2022-08-23T12:28:26.521Z,39.39
2022-08-23T12:31:07.825Z,41.42
2022-08-23T12:33:53.366Z,43.57
2022-08-23T12:36:54.363Z,44.95
2022-08-23T12:39:36.358Z,46.60
2022-08-23T12:42:20.222Z,48.11
2022-08-23T12:45:07.320Z,48.16
2022-08-23T12:47:43.178Z,48.60
2022-08-23T12:50:18.334Z,49.17
2022-08-23T12:53:04.709Z,49.51
2022-08-23T12:55:39.695Z,50.20
2022-08-23T12:58:13.243Z,51.03
2022-08-23T13:00:57.835Z,51.82
2022-08-23T13:03:42.393Z,52.27
2022-08-23T13:06:23.540Z,52.74
2022-08-23T13:09:01.879Z,53.04
2022-08-23T13:11:37.470Z,52.96
2022-08-23T13:14:31.300Z,52.92
2022-08-23T13:17:29.213Z,52.80
2022-08-23T13:20:10.574Z,52.56
2022-08-23T13:23:04.379Z,52.31
2022-08-23T13:25:42.902Z,52.42
2022-08-23T13:28:31.193Z,52.66
2022-08-23T13:31:06.268Z,52.75
2022-08-23T13:33:41.077Z,52.63
2022-08-23T13:36:18.638Z,52.68
2022-08-23T13:38:52.427Z,52.35
2022-08-23T13:41:30.432Z,51.66
2022-08-23T13:44:05.525Z,51.65
2022-08-23T13:46:40.731Z,51.71
2022-08-23T13:49:18.963Z,51.83
2022-08-23T13:52:41.314Z,51.91
2022-08-23T13:54:41.842Z,52.14
2022-08-23T13:57:17.133Z,52.34
2022-08-23T13:59:52.105Z,52.27
2022-08-23T14:02:25.588Z,51.64
2022-08-23T14:04:57.815Z,51.54
2022-08-23T14:07:30.314Z,51.47
2022-08-23T14:10:03.320Z,51.33
2022-08-23T14:12:36.658Z,51.33
2022-08-23T14:15:09.950Z,51.03
2022-08-23T14:17:50.875Z,50.97
2022-08-23T14:20:43.276Z,50.76
2022-08-23T14:23:05.642Z,50.44
2022-08-23T14:25:34.833Z,49.99
2022-08-23T14:28:07.079Z,49.39
2022-08-23T14:30:39.596Z,48.74
2022-08-23T14:33:11.919Z,48.06
2022-08-23T14:35:44.942Z,47.44
2022-08-23T14:38:19.114Z,47.11
2022-08-23T14:41:01.247Z,46.70
2022-08-23T14:43:34.799Z,46.02
2022-08-23T14:46:06.170Z,45.47
2022-08-23T14:48:38.270Z,46.07
2022-08-23T14:51:25.562Z,43.75
2022-08-23T14:53:58.217Z,42.42
2022-08-23T14:56:32.616Z,40.87
2022-08-23T14:59:04.898Z,39.59
2022-08-23T15:01:38.002Z,38.64
2022-08-23T15:04:10.946Z,37.84
2022-08-23T15:07:00.421Z,37.16
2022-08-23T15:09:17.058Z,36.60
2022-08-23T15:14:24.674Z,35.76
2022-08-23T15:16:57.550Z,35.48
2022-08-23T15:19:30.546Z,35.20
2022-08-23T15:22:15.853Z,35.00
2022-08-23T15:24:39.300Z,34.61
2022-08-23T15:27:12.680Z,34.61
2022-08-23T15:29:45.023Z,34.45
2022-08-23T15:32:22.655Z,34.31
2022-08-23T15:34:51.807Z,34.18
2022-08-23T15:37:24.467Z,34.10
2022-08-23T15:39:57.170Z,33.99
2022-08-23T15:42:29.514Z,33.90
2022-08-23T15:45:01.824Z,33.83
2022-08-23T15:47:36.964Z,33.75
2022-08-23T15:50:10.801Z,33.62
2022-08-23T15:52:43.598Z,33.53
2022-08-23T15:55:16.143Z,33.46
2022-08-23T15:57:51.392Z,33.32
2022-08-23T16:00:25.137Z,33.18
2022-08-23T16:03:19.252Z,33.10
2022-08-23T16:05:32.119Z,32.97
2022-08-23T16:08:05.097Z,32.83
2022-08-23T16:10:39.119Z,32.70
2022-08-23T16:13:11.718Z,32.58
2022-08-23T16:15:44.296Z,32.49
2022-08-23T16:18:16.657Z,32.32
2022-08-23T16:20:48.819Z,32.20
2022-08-23T16:23:23.822Z,32.10
2022-08-23T16:26:00.856Z,32.00
2022-08-23T16:28:30.195Z,31.85
2022-08-23T16:31:02.550Z,31.71
2022-08-23T16:33:35.467Z,31.59
2022-08-23T16:36:08.979Z,31.45
2022-08-23T16:38:41.264Z,31.32
2022-08-23T16:41:14.265Z,31.23
2022-08-23T16:43:47.772Z,31.12
2022-08-23T16:46:22.016Z,30.98
2022-08-23T16:48:54.481Z,30.86
2022-08-23T16:51:27.655Z,30.77
2022-08-23T16:54:02.720Z,30.62
2022-08-23T16:56:35.260Z,30.53
2022-08-23T16:59:09.980Z,30.48
2022-08-23T17:01:48.813Z,30.40
2022-08-23T17:04:24.968Z,30.28
2022-08-23T17:06:59.656Z,30.22
2022-08-23T17:09:31.810Z,30.21
2022-08-23T17:12:04.451Z,30.14
2022-08-23T17:14:36.773Z,30.06
2022-08-23T17:17:09.104Z,30.01
2022-08-23T17:19:42.017Z,29.95
2022-08-23T17:22:14.353Z,29.85
2022-08-23T17:24:47.757Z,29.83
2022-08-23T17:27:21.995Z,29.73
2022-08-23T17:29:54.633Z,29.68
2022-08-23T17:32:28.529Z,29.64
2022-08-23T17:35:00.779Z,29.57
2022-08-23T17:37:33.446Z,29.54
2022-08-23T17:40:11.070Z,29.49
2022-08-23T17:42:47.956Z,29.43
2022-08-23T17:45:20.665Z,29.35
2022-08-23T17:47:52.680Z,29.28
2022-08-23T17:50:26.092Z,29.27
2022-08-23T17:52:58.408Z,29.24
2022-08-23T17:55:32.751Z,29.24
2022-08-23T17:58:06.296Z,29.18
2022-08-23T18:00:40.236Z,29.16
2022-08-23T18:03:12.537Z,29.15
2022-08-23T18:05:46.322Z,29.11
2022-08-23T18:08:19.063Z,29.02
2022-08-23T18:10:51.804Z,28.91
2022-08-23T18:13:24.020Z,28.79
2022-08-23T18:15:56.301Z,28.67
2022-08-23T18:18:30.564Z,28.60
2022-08-23T18:21:08.401Z,28.50
2022-08-23T18:23:41.663Z,28.49
2022-08-23T18:26:32.745Z,28.44
2022-08-23T18:29:06.211Z,28.46
2022-08-23T18:31:38.574Z,28.44
2022-08-23T18:34:11.530Z,28.44
2022-08-23T18:36:45.091Z,28.46
2022-08-23T18:39:29.224Z,28.44
2022-08-23T18:41:53.284Z,28.43
2022-08-23T18:44:25.650Z,28.36
2022-08-23T18:46:58.294Z,28.34
2022-08-23T18:49:30.944Z,28.30
2022-08-23T18:52:03.742Z,28.25
2022-08-23T18:54:37.358Z,28.27
2022-08-23T18:57:09.428Z,28.27
2022-08-23T18:59:43.674Z,28.24
2022-08-23T19:02:16.363Z,28.20
2022-08-23T19:04:48.730Z,28.11
2022-08-23T19:07:21.084Z,28.07
2022-08-23T19:09:53.510Z,28.03
2022-08-23T19:12:26.396Z,27.96
2022-08-23T19:14:58.736Z,27.93
2022-08-23T19:17:32.499Z,27.92
2022-08-23T19:20:06.443Z,27.94
2022-08-23T19:22:38.555Z,27.95
2022-08-23T19:25:11.366Z,27.94
2022-08-23T19:27:43.566Z,27.92
2022-08-23T19:30:17.602Z,27.90
2022-08-23T19:32:49.806Z,27.89
2022-08-23T19:35:21.922Z,27.90
2022-08-23T19:37:54.295Z,27.87
2022-08-23T19:40:26.935Z,27.89
2022-08-23T19:43:00.974Z,27.88
2022-08-23T19:45:34.656Z,27.90
2022-08-23T19:48:07.148Z,27.90
2022-08-23T19:50:41.794Z,27.90
2022-08-23T19:53:14.969Z,27.89
2022-08-23T19:55:48.205Z,27.86
2022-08-23T19:58:20.688Z,27.82
2022-08-23T20:00:52.738Z,27.90
2022-08-23T20:03:24.945Z,27.72
2022-08-23T20:05:57.547Z,27.65
2022-08-23T20:08:31.018Z,27.59
2022-08-23T20:11:03.042Z,27.53
2022-08-23T20:13:35.282Z,27.46
2022-08-23T20:16:07.437Z,27.40
2022-08-23T20:18:39.662Z,27.35
2022-08-23T20:21:11.842Z,27.27
2022-08-23T20:24:03.597Z,27.19
2022-08-23T20:26:54.026Z,27.15
2022-08-23T20:29:27.695Z,27.13
2022-08-23T20:32:06.889Z,27.04
2022-08-23T20:34:41.363Z,27.02
2022-08-23T20:37:14.586Z,26.96
2022-08-23T20:39:46.915Z,26.95
2022-08-23T20:42:19.659Z,26.90
2022-08-23T20:44:52.366Z,26.90
2022-08-23T20:47:24.837Z,26.85
2022-08-23T20:49:56.899Z,26.85
2022-08-23T20:52:34.016Z,26.83
2022-08-23T20:55:03.920Z,26.81
2022-08-23T20:57:38.503Z,26.78
2022-08-23T21:00:29.191Z,26.75
2022-08-23T21:03:19.247Z,26.70
2022-08-23T21:05:52.083Z,26.64
2022-08-23T21:08:24.701Z,26.60
2022-08-23T21:10:57.750Z,26.55
2022-08-23T21:13:30.322Z,26.48
2022-08-23T21:16:02.787Z,26.42
2022-08-23T21:18:35.282Z,26.34
2022-08-23T21:21:07.925Z,26.27
2022-08-23T21:23:40.847Z,26.19
2022-08-23T21:26:12.932Z,26.15
2022-08-23T21:28:45.953Z,26.09
2022-08-23T21:31:21.462Z,26.05
2022-08-23T21:33:55.094Z,25.99
2022-08-23T21:36:27.664Z,25.94
2022-08-23T21:39:00.278Z,25.90
2022-08-23T21:41:41.337Z,25.88
2022-08-23T21:44:16.147Z,25.81
2022-08-23T21:46:49.178Z,25.78
2022-08-23T21:49:24.202Z,25.77
2022-08-23T21:51:56.547Z,25.78
2022-08-23T21:54:29.564Z,25.80
2022-08-23T21:57:01.864Z,25.78
2022-08-23T21:59:34.293Z,25.82
2022-08-23T22:02:07.293Z,25.83
2022-08-23T22:04:40.548Z,25.85
2022-08-23T22:07:16.296Z,25.82
2022-08-23T22:09:50.433Z,25.78
2022-08-23T22:12:25.100Z,25.70
2022-08-23T22:14:57.304Z,25.62
2022-08-23T22:17:29.794Z,25.56
2022-08-23T22:20:03.884Z,25.55
2022-08-23T22:22:38.118Z,25.54
2022-08-23T22:25:10.214Z,25.54
2022-08-23T22:27:46.012Z,25.66
2022-08-23T22:30:19.324Z,25.53
2022-08-23T22:32:51.502Z,25.44
2022-08-23T22:35:23.807Z,25.40
2022-08-23T22:38:12.777Z,25.39
2022-08-23T22:40:29.783Z,25.34
2022-08-23T22:43:02.824Z,25.32
2022-08-23T22:45:36.471Z,25.28
2022-08-23T22:48:08.972Z,25.26
2022-08-23T22:50:41.795Z,25.20
2022-08-23T22:53:14.421Z,25.16
2022-08-23T22:55:53.065Z,25.13
2022-08-23T22:58:25.263Z,25.03
2022-08-23T23:00:57.512Z,25.00
2022-08-23T23:03:30.135Z,24.98
2022-08-23T23:06:02.366Z,24.89
2022-08-23T23:08:34.403Z,24.83
2022-08-23T23:11:09.493Z,24.73
2022-08-23T23:13:42.354Z,24.68
2022-08-23T23:16:17.723Z,24.67
2022-08-23T23:19:08.414Z,24.66
2022-08-23T23:21:43.455Z,24.62
2022-08-23T23:24:19.325Z,24.61
2022-08-23T23:26:52.433Z,24.57
2022-08-23T23:29:25.003Z,24.57
2022-08-23T23:31:57.432Z,24.54
2022-08-23T23:34:30.072Z,24.48
2022-08-23T23:37:02.679Z,24.46
2022-08-23T23:39:34.923Z,24.41
2022-08-23T23:42:07.594Z,24.43
2022-08-23T23:44:39.605Z,24.41
2022-08-23T23:47:11.972Z,24.40
2022-08-23T23:49:44.314Z,24.41
2022-08-23T23:52:16.673Z,24.40
2022-08-23T23:54:48.757Z,24.39
2022-08-23T23:57:21.595Z,24.37
2022-08-23T23:59:55.556Z,24.35
